Time;durP1;ratioP1;P1;durP2;ratioP2;P2;SDS_P1;SDS_P2;PMS_P1;PMS_P2;Temp;Humidity;BMP_temperature;BMP_pressure;BME280_temperature;BME280_humidity;BME280_pressure;Samples;Min_cycle;Max_cycle;Signal;HPM_P1;HPM_P2
2022/03/24 00:25:42;;;;;;;21.27;16.10;;;;;;;15.08;26.52;101207.94;2316454;85;25657;-75
2022/03/24 00:33:53;;;;;;;28.50;16.70;;;;;;;14.83;26.68;101204.41;2136838;90;25769;-75
2022/03/24 00:37:50;;;;;;;26.87;15.93;;;;;;;14.83;26.68;101204.41;2073617;93;25717;-77
2022/03/24 00:41:35;;;;;;;23.25;15.68;;;;;;;14.76;26.81;101206.03;2050615;94;25786;-75
2022/03/24 00:45:12;;;;;;;16.62;14.38;;;;;;;14.70;26.90;101205.91;2045222;94;25803;-77
2022/03/24 00:48:57;;;;;;;23.22;15.23;;;;;;;14.44;27.05;101173.84;2058013;94;25982;-74
2022/03/24 00:57:47;;;;;;;18.42;15.40;;;;;;;14.50;27.16;101196.31;2092832;92;25883;-75
2022/03/24 01:01:33;;;;;;;19.20;15.05;;;;;;;14.43;27.29;101193.08;2063202;95;25850;-75
2022/03/24 01:05:37;;;;;;;;;;;;;;;;;;;;;
2022/03/24 01:09:25;;;;;;;;;;;;;;;;;;;;;
2022/03/24 01:13:14;;;;;;;21.65;15.08;;;;;;;14.23;27.49;101191.34;1953936;99;25852;-75
2022/03/24 01:17:15;;;;;;;17.12;14.00;;;;;;;14.16;27.56;101182.87;1937181;99;25903;-75
2022/03/24 01:26:16;;;;;;;19.10;14.78;;;;;;;14.04;27.74;101188.76;1904384;100;25871;-81
2022/03/24 01:30:26;;;;;;;22.17;14.78;;;;;;;13.97;27.86;101187.25;1897656;102;25744;-75
2022/03/24 01:42:59;;;;;;;16.57;14.25;;;;;;;13.80;28.09;101187.74;2283578;85;35213;-86
2022/03/24 01:51:53;;;;;;;20.88;14.23;;;;;;;13.68;28.26;101181.80;2211037;87;25936;-76
2022/03/24 01:55:58;;;;;;;;;;;;;;;;;;;;;
2022/03/24 01:59:55;;;;;;;19.87;14.85;;;;;;;13.57;28.45;101187.66;2225847;85;25834;-89
2022/03/24 02:03:57;;;;;;;18.23;14.23;;;;;;;13.51;28.55;101187.06;2214420;87;25704;-88
2022/03/24 02:07:53;;;;;;;18.77;14.70;;;;;;;13.46;28.68;101176.89;2150841;90;25808;-87
2022/03/24 02:15:47;;;;;;;21.80;15.70;;;;;;;13.35;28.87;101179.67;2093886;93;25816;-76
2022/03/24 02:24:15;;;;;;;;;;;;;;;;;;;;;
2022/03/24 02:28:03;;;;;;;18.23;15.65;;;;;;;13.19;29.16;101180.55;2173744;89;25936;-80
2022/03/24 02:31:50;;;;;;;20.20;15.65;;;;;;;13.16;29.23;101192.67;1956029;100;25843;-82
2022/03/24 02:35:16;;;;;;;21.97;15.28;;;;;;;13.10;29.30;101186.88;1935499;100;25532;-82
2022/03/24 02:44:11;;;;;;;19.85;15.58;;;;;;;13.03;29.50;101189.27;1909392;101;26057;-77
2022/03/24 02:48:30;;;;;;;20.32;14.83;;;;;;;12.96;29.58;101185.64;1907227;101;25878;-84
2022/03/24 02:52:05;;;;;;;18.45;15.65;;;;;;;12.90;29.72;101189.39;1886203;102;26739;-75
2022/03/24 03:03:41;;;;;;;22.98;16.23;;;;;;;12.80;29.97;101196.53;1800657;104;26246;-81
2022/03/24 03:07:33;;;;;;;;;;;;;;;;;;;;;
2022/03/24 03:15:57;;;;;;;;;;;;;;;;;;;;;
2022/03/24 03:32:24;;;;;;;26.68;17.10;;;;;;;12.49;30.57;101203.09;1832963;105;25854;-74
2022/03/24 03:35:57;;;;;;;27.80;18.87;;;;;;;12.43;30.69;101204.64;1851094;103;26012;-84
2022/03/24 03:48:29;;;;;;;;;;;;;;;;;;;;;
2022/03/24 03:52:39;;;;;;;34.67;20.45;;;;;;;12.26;31.09;101218.52;1831080;106;26029;-79
2022/03/24 03:56:46;;;;;;;27.82;19.25;;;;;;;12.20;31.16;101221.83;1786761;108;25994;-85
2022/03/24 04:04:27;;;;;;;30.35;18.92;;;;;;;12.11;31.37;101215.00;1751805;110;25936;-81
2022/03/24 04:08:26;;;;;;;;;;;;;;;;;;;;;
2022/03/24 04:11:55;;;;;;;27.20;20.47;;;;;;;12.03;31.57;101223.04;1685116;115;25933;-73
2022/03/24 04:15:40;;;;;;;29.87;19.95;;;;;;;12.00;31.67;101216.41;1708210;114;25880;-79
2022/03/24 04:19:08;;;;;;;25.20;20.05;;;;;;;11.99;31.79;101218.14;1730855;111;25552;-87
2022/03/24 04:22:53;;;;;;;32.75;20.82;;;;;;;11.95;31.88;101226.73;1740069;110;26564;-78
2022/03/24 04:26:24;;;;;;;29.48;19.65;;;;;;;11.89;32.01;101226.95;1713090;111;26159;-77
2022/03/24 04:33:31;;;;;;;30.87;21.63;;;;;;;11.80;32.19;101236.64;1730033;112;25854;-75
2022/03/24 04:37:25;;;;;;;29.12;19.40;;;;;;;11.75;32.30;101233.89;1729566;112;26366;-76
2022/03/24 04:41:29;;;;;;;;;;;;;;;11.71;32.39;101232.42;1708492;112;26014;-75
2022/03/24 04:45:56;;;;;;;32.63;22.30;;;;;;;11.67;32.51;101237.08;1714607;112;26048;-77
2022/03/24 05:07:48;;;;;;;;;;;;;;;;;;;;;
2022/03/24 05:21:18;;;;;;;37.28;26.25;;;;;;;11.42;33.35;101240.61;1773468;110;25819;-81
2022/03/24 05:25:26;;;;;;;44.03;27.67;;;;;;;11.38;33.48;101239.63;1725855;111;25948;-77
2022/03/24 05:29:31;;;;;;;42.67;27.52;;;;;;;11.40;33.61;101247.49;1677499;112;25913;-79
2022/03/24 05:33:33;;;;;;;;;;;;;;;;;;;;;
2022/03/24 05:37:00;;;;;;;42.13;26.10;;;;;;;11.40;33.79;101239.23;1686074;114;25828;-77
2022/03/24 05:40:47;;;;;;;;;;;;;;;;;;;;;
2022/03/24 05:44:48;;;;;;;43.37;26.20;;;;;;;11.42;34.00;101240.19;1683837;114;25897;-77
2022/03/24 05:52:57;;;;;;;36.77;25.95;;;;;;;11.49;34.17;101247.81;1711806;110;26132;-85
2022/03/24 05:56:58;;;;;;;37.95;24.70;;;;;;;11.53;34.25;101258.40;1737673;111;26175;-86
2022/03/24 06:01:16;;;;;;;;;;;;;;;;;;;;;
2022/03/24 06:08:12;;;;;;;40.50;24.75;;;;;;;11.66;34.33;101253.17;1665875;116;25830;-76
2022/03/24 06:11:56;;;;;;;37.50;24.92;;;;;;;11.71;34.38;101252.02;1683841;114;25924;-76
2022/03/24 06:19:53;;;;;;;;;;;;;;;;;;;;;
2022/03/24 06:24:47;;;;;;;;;;;;;;;;;;;;;
2022/03/24 06:40:33;;;;;;;35.70;23.60;;;;;;;12.19;34.11;101259.70;1760042;110;25958;-84
2022/03/24 06:44:10;;;;;;;35.20;23.90;;;;;;;12.40;33.99;101259.46;1732894;113;25909;-75
2022/03/24 06:47:46;;;;;;;32.83;24.43;;;;;;;12.53;33.79;101262.91;1776676;111;26393;-77
2022/03/24 06:51:23;;;;;;;33.70;24.37;;;;;;;12.62;33.66;101271.05;1772952;111;25486;-76
2022/03/24 06:55:14;;;;;;;35.25;23.02;;;;;;;12.73;33.64;101272.23;1728784;110;25856;-76
2022/03/24 06:59:21;;;;;;;;;;;;;;;;;;;;;
2022/03/24 07:03:07;;;;;;;;;;;;;;;;;;;;;
2022/03/24 07:07:22;;;;;;;33.70;22.02;;;;;;;13.12;33.13;101276.80;1688770;113;25931;-77
2022/03/24 07:11:13;;;;;;;32.70;22.15;;;;;;;13.21;33.06;101278.37;1637771;119;25929;-76
2022/03/24 07:14:46;;;;;;;30.37;20.72;;;;;;;13.40;32.94;101286.77;1650065;114;26038;-77
2022/03/24 07:19:06;;;;;;;27.87;20.02;;;;;;;13.56;32.74;101286.73;1710844;112;25899;-76
2022/03/24 07:22:33;;;;;;;34.27;19.55;;;;;;;13.69;32.47;101289.70;1678991;111;26044;-77
2022/03/24 07:26:54;;;;;;;26.45;17.67;;;;;;;14.82;32.18;101282.72;1750935;110;25834;-80
2022/03/24 07:31:22;;;;;;;25.02;18.02;;;;;;;18.51;29.71;101288.08;1780085;110;25946;-87
2022/03/24 07:34:52;;;;;;;18.30;16.30;;;;;;;22.04;26.46;101288.42;1781995;106;25859;-78
2022/03/24 07:38:21;;;;;;;21.62;15.80;;;;;;;24.73;23.79;101296.98;1781152;110;25982;-79
2022/03/24 07:42:01;;;;;;;17.65;12.95;;;;;;;26.64;21.88;101306.70;1792948;106;26034;-77
2022/03/24 07:45:57;;;;;;;;;;;;;;;;;;;;;
2022/03/24 07:49:25;;;;;;;13.35;12.10;;;;;;;30.04;18.92;101310.37;1824578;105;25787;-76
2022/03/24 07:53:29;;;;;;;;;;;;;;;;;;;;;
2022/03/24 07:57:09;;;;;;;10.72;9.75;;;;;;;33.39;16.40;101323.89;1968132;99;25793;-77
2022/03/24 08:01:07;;;;;;;10.05;9.15;;;;;;;34.84;15.33;101328.84;1962790;99;25759;-76
2022/03/24 08:04:47;;;;;;;9.15;8.20;;;;;;;36.05;14.53;101333.15;1916121;102;25751;-86
2022/03/24 08:08:41;;;;;;;11.40;7.58;;;;;;;36.93;13.80;101330.10;1906822;101;25767;-83
2022/03/24 08:12:11;;;;;;;10.50;7.65;;;;;;;37.75;13.32;101332.66;1871477;103;25951;-82
2022/03/24 08:15:56;;;;;;;;;;;;;;;;;;;;;
2022/03/24 08:19:37;;;;;;;10.28;7.95;;;;;;;39.20;12.44;101337.18;1822175;107;25934;-77
2022/03/24 08:23:18;;;;;;;10.58;7.92;;;;;;;39.79;12.05;101342.27;1771051;110;26173;-82
2022/03/24 08:27:04;;;;;;;8.13;7.53;;;;;;;40.31;11.71;101346.53;1766042;110;25947;-79
2022/03/24 08:30:24;;;;;;;11.18;7.53;;;;;;;40.77;11.51;101339.28;1764531;110;26132;-78
2022/03/24 08:34:23;;;;;;;7.53;6.83;;;;;;;41.22;11.26;101339.39;1741088;111;26274;-81
2022/03/24 08:38:01;;;;;;;7.75;6.47;;;;;;;41.64;11.11;101341.92;1746638;111;25927;-83
2022/03/24 08:41:29;;;;;;;6.75;6.17;;;;;;;42.17;10.92;101348.36;1776968;109;27116;-84
2022/03/24 08:45:04;;;;;;;7.15;6.50;;;;;;;42.74;10.89;101348.44;1763432;110;25931;-84
2022/03/24 08:48:46;;;;;;;6.25;5.72;;;;;;;43.36;10.83;101352.31;1711905;112;26144;-82
2022/03/24 08:52:26;;;;;;;5.22;4.83;;;;;;;44.01;10.73;101356.27;1738214;112;25955;-79
2022/03/24 08:55:51;;;;;;;5.35;4.95;;;;;;;44.56;10.60;101356.03;1735162;112;26119;-81
2022/03/24 08:59:38;;;;;;;7.15;4.87;;;;;;;44.95;10.52;101345.94;1736561;112;26105;-83
2022/03/24 09:03:06;;;;;;;5.55;4.90;;;;;;;45.37;10.46;101346.47;1686485;115;25869;-84
2022/03/24 09:06:29;;;;;;;7.70;6.97;;;;;;;45.68;10.28;101354.98;1678477;115;25916;-79
2022/03/24 09:09:52;;;;;;;8.33;7.20;;;;;;;44.47;8.43;101337.75;1670646;116;26743;-74
2022/03/24 09:13:22;;;;;;;9.08;7.17;;;;;;;42.67;8.21;101330.31;1623508;119;26119;-75
2022/03/24 09:16:47;;;;;;;7.58;6.95;;;;;;;41.27;8.48;101329.73;1621006;120;25945;-75
2022/03/24 09:20:16;;;;;;;8.73;7.87;;;;;;;40.52;8.74;101321.41;1704551;112;26811;-76
2022/03/24 09:23:46;;;;;;;9.83;7.78;;;;;;;39.96;8.81;101326.31;1729538;112;25964;-75
2022/03/24 09:27:26;;;;;;;9.83;7.15;;;;;;;39.66;8.88;101327.93;1735614;112;26019;-75
2022/03/24 09:30:50;;;;;;;8.45;6.87;;;;;;;39.33;9.06;101315.25;1763637;110;25966;-74
2022/03/24 09:34:18;;;;;;;7.78;6.87;;;;;;;39.10;9.15;101307.57;1782084;109;26324;-74
2022/03/24 09:37:48;;;;;;;6.75;5.55;;;;;;;38.93;9.19;101313.05;1783051;108;25990;-75
2022/03/24 09:44:52;;;;;;;4.83;4.50;;;;;;;38.82;9.24;101307.61;1851662;105;25810;-73
2022/03/24 09:48:26;;;;;;;4.37;3.75;;;;;;;38.85;9.12;101302.77;1871249;103;26002;-76
2022/03/24 09:51:49;;;;;;;4.67;4.03;;;;;;;38.99;8.94;101308.45;1880513;104;25856;-74
2022/03/24 09:55:12;;;;;;;9.40;4.28;;;;;;;39.03;8.92;101300.39;1877558;103;26063;-73
2022/03/24 09:58:36;;;;;;;5.03;3.62;;;;;;;39.06;8.71;101304.73;1890372;103;26032;-74
2022/03/24 10:01:57;;;;;;;5.62;3.95;;;;;;;39.05;8.59;101295.69;1906528;103;25829;-75
2022/03/24 10:05:18;;;;;;;3.10;2.90;;;;;;;38.99;8.58;101292.59;1909125;100;25865;-73
2022/03/24 10:08:39;;;;;;;10.78;3.20;;;;;;;39.15;8.54;101296.66;1906800;102;26134;-73
2022/03/24 10:12:07;;;;;;;3.40;2.92;;;;;;;39.18;8.54;101295.52;1908522;102;26269;-74
2022/03/24 10:15:39;;;;;;;;;;;;;;;;;;;;;
2022/03/24 10:19:05;;;;;;;3.50;2.37;;;;;;;39.20;8.33;101291.67;1907979;103;25980;-74
2022/03/24 10:22:28;;;;;;;2.70;2.50;;;;;;;39.15;8.18;101285.75;1891206;103;26383;-74
2022/03/24 10:25:59;;;;;;;5.75;3.20;;;;;;;39.08;8.25;101285.00;1903281;102;26759;-74
2022/03/24 10:29:27;;;;;;;4.83;3.00;;;;;;;39.05;8.22;101283.42;1907914;102;25774;-72
2022/03/24 10:33:05;;;;;;;7.25;4.00;;;;;;;38.96;8.18;101278.72;1906306;102;25872;-74
2022/03/24 10:36:34;;;;;;;7.75;3.52;;;;;;;38.77;8.17;101277.08;1929389;100;25860;-74
2022/03/24 10:40:08;;;;;;;9.48;3.17;;;;;;;38.56;8.21;101280.55;1945635;99;25822;-73
2022/03/24 10:43:40;;;;;;;7.93;3.10;;;;;;;38.27;8.29;101276.92;1963382;98;25845;-73
2022/03/24 10:47:02;;;;;;;5.12;3.35;;;;;;;38.12;8.41;101266.36;1965679;99;25852;-74
2022/03/24 10:50:39;;;;;;;6.00;3.58;;;;;;;38.07;8.42;101271.29;1962757;99;26114;-74
2022/03/24 10:54:28;;;;;;;5.70;3.50;;;;;;;37.93;8.44;101258.26;1953204;99;25926;-75
2022/03/24 10:58:00;;;;;;;6.58;3.50;;;;;;;37.82;8.55;101259.56;1955823;97;26344;-72
2022/03/24 11:01:27;;;;;;;3.83;3.45;;;;;;;37.51;8.89;101245.60;2001733;97;25883;-73
2022/03/24 11:04:47;;;;;;;5.03;3.22;;;;;;;37.51;8.89;101245.60;1987290;97;26036;-73
2022/03/24 11:08:28;;;;;;;7.57;3.40;;;;;;;37.44;8.63;101246.19;1981860;93;25997;-76
2022/03/24 11:12:31;;;;;;;4.72;2.92;;;;;;;37.29;8.72;101253.11;1998881;98;25855;-73
2022/03/24 11:15:52;;;;;;;4.40;3.47;;;;;;;37.09;8.80;101242.86;1983132;97;25680;-73
2022/03/24 11:19:17;;;;;;;10.08;3.00;;;;;;;36.90;8.76;101236.55;1979392;97;25948;-72
2022/03/24 11:23:24;;;;;;;5.72;3.40;;;;;;;36.66;8.90;101226.14;1974047;97;26309;-73
2022/03/24 11:26:48;;;;;;;8.95;3.98;;;;;;;36.52;8.88;101218.50;1962913;98;25768;-72
2022/03/24 11:30:20;;;;;;;5.78;3.10;;;;;;;36.34;9.00;101220.63;1969772;98;25864;-73
2022/03/24 11:34:04;;;;;;;5.97;3.52;;;;;;;36.23;9.00;101214.25;1974813;97;25790;-72
2022/03/24 11:37:30;;;;;;;7.15;3.35;;;;;;;36.03;9.05;101210.23;1977089;92;26470;-76
2022/03/24 11:40:50;;;;;;;5.33;3.62;;;;;;;35.89;9.10;101215.23;1970003;97;25809;-74
2022/03/24 11:48:39;;;;;;;8.53;3.85;;;;;;;35.70;9.22;101208.85;1976741;97;26044;-74
2022/03/24 11:52:05;;;;;;;8.93;3.90;;;;;;;35.49;9.16;101204.38;1965817;98;26158;-79
2022/03/24 11:55:39;;;;;;;10.43;4.50;;;;;;;35.35;9.28;101199.90;1936937;98;25934;-73
2022/03/24 11:59:24;;;;;;;3.87;3.45;;;;;;;35.23;9.32;101200.22;1965374;98;25950;-76
2022/03/24 12:02:47;;;;;;;6.10;3.87;;;;;;;35.00;9.40;101184.14;2015217;95;25854;-73
2022/03/24 12:06:09;;;;;;;3.95;3.55;;;;;;;34.90;9.50;101188.88;2041926;94;25923;-72
2022/03/24 12:09:54;;;;;;;5.35;3.62;;;;;;;34.78;9.50;101184.66;2038222;95;25875;-75
2022/03/24 12:13:34;;;;;;;7.35;3.92;;;;;;;34.64;9.55;101185.19;2057696;93;25860;-75
2022/03/24 12:17:28;;;;;;;;;;;;;;;;;;;;;
2022/03/24 12:20:47;;;;;;;5.22;3.40;;;;;;;34.29;9.73;101166.15;2014760;97;25884;-74
2022/03/24 12:24:17;;;;;;;8.30;3.80;;;;;;;34.18;9.72;101156.95;2015334;97;25835;-75
2022/03/24 12:28:27;;;;;;;10.53;4.80;;;;;;;34.02;9.80;101157.94;2018647;97;26204;-74
2022/03/24 12:32:10;;;;;;;9.48;4.62;;;;;;;33.93;9.83;101154.41;2032640;96;25893;-74
2022/03/24 12:36:01;;;;;;;8.50;4.62;;;;;;;33.74;9.89;101151.95;1950166;99;25931;-75
2022/03/24 12:39:41;;;;;;;8.70;4.25;;;;;;;33.63;9.92;101154.45;1952416;98;25808;-76
2022/03/24 12:43:04;;;;;;;5.00;3.98;;;;;;;33.44;9.92;101146.54;1935100;100;25884;-76
2022/03/24 12:46:39;;;;;;;5.97;4.10;;;;;;;33.15;10.17;101145.11;1917943;101;26635;-75
2022/03/24 12:50:28;;;;;;;11.20;3.62;;;;;;;33.03;10.26;101142.25;1927341;101;26602;-77
2022/03/24 12:54:04;;;;;;;8.18;4.45;;;;;;;32.87;10.35;101134.12;1951689;98;25943;-77
2022/03/24 12:57:34;;;;;;;6.12;3.62;;;;;;;32.76;10.45;101133.88;1941402;99;25916;-74
2022/03/24 13:01:02;;;;;;;5.53;3.98;;;;;;;32.65;10.56;101127.27;1932672;101;26065;-75
2022/03/24 13:04:23;;;;;;;6.42;3.72;;;;;;;32.56;10.54;101126.91;1926479;101;25943;-75
2022/03/24 13:07:55;;;;;;;8.68;3.92;;;;;;;32.33;10.71;101124.12;2045277;94;26560;-74
2022/03/24 13:11:33;;;;;;;5.70;4.20;;;;;;;32.31;10.74;101121.52;2047882;94;25968;-75
2022/03/24 13:15:00;;;;;;;4.78;3.45;;;;;;;32.20;10.88;101119.42;2049019;95;25878;-74
2022/03/24 13:18:28;;;;;;;9.55;3.77;;;;;;;32.15;10.94;101112.53;2046914;95;26113;-77
2022/03/24 13:22:05;;;;;;;5.50;4.12;;;;;;;32.07;11.00;101108.05;2045353;95;25514;-74
2022/03/24 13:25:29;;;;;;;10.45;3.80;;;;;;;31.97;11.05;101102.28;2046015;95;25845;-74
2022/03/24 13:29:04;;;;;;;5.53;2.98;;;;;;;31.87;11.24;101103.70;2032121;96;26137;-75
2022/03/24 13:32:40;;;;;;;4.80;3.72;;;;;;;31.81;11.30;101107.59;2046294;95;26514;-75
2022/03/24 13:36:05;;;;;;;11.53;4.40;;;;;;;31.81;11.33;101103.55;2028842;95;25960;-75
2022/03/24 13:39:51;;;;;;;7.15;3.70;;;;;;;31.70;11.36;101090.64;2050731;95;25856;-75
2022/03/24 13:43:12;;;;;;;9.10;3.92;;;;;;;31.67;11.39;101089.94;2055108;95;25969;-76
2022/03/24 13:46:39;;;;;;;24.85;4.75;;;;;;;31.38;12.99;101088.28;2057765;95;26473;-74
2022/03/24 13:50:09;;;;;;;7.83;4.00;;;;;;;31.19;14.20;101074.02;2049935;95;26047;-74
2022/03/24 13:53:35;;;;;;;5.83;3.92;;;;;;;30.96;14.64;101082.78;2049589;94;25942;-73
2022/03/24 13:57:24;;;;;;;4.12;3.40;;;;;;;30.69;14.94;101088.16;2058564;93;26537;-74
2022/03/24 14:01:05;;;;;;;6.25;3.90;;;;;;;30.66;15.27;101079.77;2047646;92;26486;-72
2022/03/24 14:04:26;;;;;;;4.75;4.30;;;;;;;30.48;15.76;101073.47;2045403;95;26484;-76
2022/03/24 14:08:09;;;;;;;10.50;3.92;;;;;;;30.22;15.53;101063.08;2027038;96;25468;-73
2022/03/24 14:11:39;;;;;;;5.28;3.70;;;;;;;29.82;15.75;101069.80;2018218;95;26532;-77
2022/03/24 14:15:08;;;;;;;11.05;5.35;;;;;;;29.67;16.86;101062.45;1998041;97;26062;-76
2022/03/24 14:18:30;;;;;;;5.47;4.53;;;;;;;29.75;16.62;101064.78;2027774;95;25885;-75
2022/03/24 14:22:16;;;;;;;4.65;3.87;;;;;;;29.71;17.09;101063.19;2018376;95;25949;-74
2022/03/24 14:25:58;;;;;;;7.37;4.75;;;;;;;29.49;17.59;101054.69;2043234;95;25773;-75
2022/03/24 14:29:36;;;;;;;4.70;4.05;;;;;;;29.13;16.95;101053.17;2007764;96;25778;-74
2022/03/24 14:33:01;;;;;;;10.20;4.75;;;;;;;28.92;16.53;101050.87;2008466;96;25991;-75
2022/03/24 14:36:48;;;;;;;7.17;4.58;;;;;;;28.74;16.31;101053.00;2029159;96;25834;-75
2022/03/24 14:40:15;;;;;;;4.78;4.25;;;;;;;28.50;16.02;101048.16;2073750;91;26393;-77
2022/03/24 14:43:45;;;;;;;6.53;5.10;;;;;;;28.25;15.94;101040.60;2124281;91;25754;-74
2022/03/24 14:47:31;;;;;;;;;;;;;;;;;;;;;
2022/03/24 14:50:50;;;;;;;6.37;5.58;;;;;;;27.50;16.11;101039.84;2116629;91;25731;-76
2022/03/24 14:54:14;;;;;;;16.07;6.12;;;;;;;27.24;16.06;101036.31;2137557;89;25886;-75
2022/03/24 14:57:34;;;;;;;8.60;6.40;;;;;;;26.96;16.37;101023.42;2175290;89;25451;-77
2022/03/24 15:05:17;;;;;;;10.90;5.95;;;;;;;26.50;16.23;101027.18;2102689;92;25805;-73
2022/03/24 15:08:44;;;;;;;7.20;6.30;;;;;;;25.77;16.17;101018.20;2119111;92;26118;-75
2022/03/24 15:12:14;;;;;;;6.85;5.45;;;;;;;25.31;16.34;101011.95;2139830;91;25845;-75
2022/03/24 15:19:46;;;;;;;5.85;5.22;;;;;;;24.48;16.75;101006.94;2069608;93;25791;-74
2022/03/24 15:23:38;;;;;;;;;;;;;;;;;;;;;
2022/03/24 15:26:59;;;;;;;7.87;4.97;;;;;;;23.79;17.86;101001.81;2059463;95;26562;-76
2022/03/24 15:30:30;;;;;;;7.30;5.78;;;;;;;23.88;18.33;100999.84;2070589;93;26557;-78
2022/03/24 15:34:00;;;;;;;9.98;4.53;;;;;;;23.90;18.59;101002.03;2069132;94;25890;-77
2022/03/24 15:37:27;;;;;;;5.70;4.22;;;;;;;23.82;18.87;101007.50;2058966;92;26089;-77
2022/03/24 15:41:10;;;;;;;4.37;3.98;;;;;;;23.71;19.03;101006.86;2014664;95;25717;-76
2022/03/24 15:44:44;;;;;;;7.42;5.28;;;;;;;23.58;19.21;100999.53;2021384;95;25834;-78
2022/03/24 15:48:17;;;;;;;5.70;5.05;;;;;;;23.46;19.41;100998.02;2040359;95;25922;-75
2022/03/24 15:51:41;;;;;;;;;;;;;;;23.30;19.47;100995.22;2061045;95;25856;-75
2022/03/24 15:55:02;;;;;;;9.78;5.12;;;;;;;23.18;19.56;101003.42;2017966;96;25804;-77
2022/03/24 15:58:34;;;;;;;5.10;4.70;;;;;;;23.00;19.54;101008.17;2020401;96;25710;-75
2022/03/24 16:02:13;;;;;;;6.50;5.03;;;;;;;22.89;19.74;101003.93;2016028;96;25816;-76
2022/03/24 16:05:38;;;;;;;7.78;4.95;;;;;;;22.72;20.02;101001.10;2028004;96;25804;-76
2022/03/24 16:09:06;;;;;;;6.35;4.95;;;;;;;22.55;20.20;101000.50;1993996;98;26066;-76
2022/03/24 16:12:42;;;;;;;8.15;5.17;;;;;;;22.42;20.31;101001.14;2000626;96;25759;-76
2022/03/24 16:16:32;;;;;;;9.25;4.87;;;;;;;22.26;20.62;100994.30;2049646;95;26201;-76
2022/03/24 16:20:14;;;;;;;16.10;5.20;;;;;;;22.14;20.72;101001.52;2051538;94;26016;-81
2022/03/24 16:27:24;;;;;;;7.40;5.40;;;;;;;21.87;21.08;100997.47;1847455;105;26080;-77
2022/03/24 16:31:00;;;;;;;9.13;5.05;;;;;;;21.76;21.29;100999.36;1843628;105;25873;-78
2022/03/24 16:34:28;;;;;;;16.57;5.40;;;;;;;21.63;21.43;101001.73;1842589;105;25925;-77
2022/03/24 16:38:14;;;;;;;10.25;5.30;;;;;;;21.49;21.74;101012.51;1854919;104;25933;-74
2022/03/24 16:41:43;;;;;;;10.95;5.53;;;;;;;21.35;21.80;101005.16;1865093;105;26032;-77
2022/03/24 16:44:59;;;;;;;16.93;5.75;;;;;;;21.23;22.11;101009.67;1848109;104;26215;-74
2022/03/24 16:48:23;;;;;;;12.63;5.85;;;;;;;21.14;22.35;101010.21;1859349;104;26429;-76
2022/03/24 16:51:44;;;;;;;8.93;5.47;;;;;;;21.03;22.61;101005.47;1855096;104;25881;-77
2022/03/24 16:55:07;;;;;;;10.38;5.12;;;;;;;20.89;22.69;101014.42;1843747;105;25834;-75
2022/03/24 16:58:28;;;;;;;11.93;5.15;;;;;;;20.77;22.81;101009.22;1861698;104;25845;-78
2022/03/24 17:01:54;;;;;;;13.15;4.85;;;;;;;20.66;23.03;101012.41;1859965;104;25893;-75
2022/03/24 17:05:39;;;;;;;17.17;5.92;;;;;;;20.54;23.21;101009.39;1883783;103;25756;-81
2022/03/24 17:09:00;;;;;;;10.28;5.35;;;;;;;20.51;23.38;101016.03;1910713;102;26021;-77
2022/03/24 17:12:32;;;;;;;14.85;4.70;;;;;;;20.41;23.61;101024.90;1934743;101;26017;-78
2022/03/24 17:16:15;;;;;;;15.58;7.08;;;;;;;20.32;23.60;101025.86;1933938;102;26508;-78
2022/03/24 17:19:36;;;;;;;12.30;6.22;;;;;;;20.21;23.83;101027.67;1967908;95;26095;-78
2022/03/24 17:22:59;;;;;;;16.67;5.83;;;;;;;20.09;23.94;101026.43;2049542;89;25852;-77
2022/03/24 17:26:21;;;;;;;9.60;5.40;;;;;;;19.96;23.94;101034.42;2137004;90;25935;-76
2022/03/24 17:29:42;;;;;;;9.95;6.37;;;;;;;19.87;24.04;101036.22;2183923;87;25908;-77
2022/03/24 17:33:03;;;;;;;13.95;5.62;;;;;;;19.75;24.06;101034.52;2204534;86;25861;-78
2022/03/24 17:36:33;;;;;;;7.92;5.75;;;;;;;19.65;24.11;101032.79;2215244;86;25768;-77
2022/03/24 17:40:09;;;;;;;;;;;;;;;;;;;;;
2022/03/24 17:43:17;;;;;;;12.73;5.75;;;;;;;19.50;24.35;101040.28;2135074;89;25819;-77
2022/03/24 17:46:45;;;;;;;11.25;5.83;;;;;;;19.40;24.44;101038.09;2135821;89;26368;-77
2022/03/24 17:50:23;;;;;;;;;;;;;;;19.32;24.53;101038.56;2141507;90;25969;-77
2022/03/24 17:53:53;;;;;;;10.68;6.42;;;;;;;19.22;24.70;101036.81;2154626;89;25705;-80
2022/03/24 17:57:37;;;;;;;12.07;6.72;;;;;;;19.08;24.77;101037.71;2171358;89;33486;-79
2022/03/24 18:05:26;;;;;;;16.55;6.80;;;;;;;18.91;24.94;101037.29;2043739;94;26421;-80
2022/03/24 18:09:03;;;;;;;;;;;;;;;;;;;;;
2022/03/24 18:12:27;;;;;;;14.40;8.43;;;;;;;18.69;25.11;101033.27;1995368;96;25394;-78
2022/03/24 18:15:45;;;;;;;10.10;7.80;;;;;;;18.59;25.25;101040.30;2002133;96;26232;-79
2022/03/24 18:19:06;;;;;;;11.63;7.85;;;;;;;18.50;25.38;101042.95;1968885;98;25815;-78
2022/03/24 18:22:34;;;;;;;11.97;7.20;;;;;;;18.40;25.36;101048.64;1936593;99;31160;-80
2022/03/24 18:26:15;;;;;;;12.58;7.87;;;;;;;18.30;25.54;101045.55;1938034;100;25961;-80
2022/03/24 18:29:53;;;;;;;23.25;8.90;;;;;;;18.23;25.66;101046.85;1942157;99;25910;-80
2022/03/24 18:33:35;;;;;;;14.35;9.38;;;;;;;18.14;25.71;101054.29;1930346;100;25482;-80
2022/03/24 18:37:01;;;;;;;18.82;9.35;;;;;;;18.04;25.79;101056.01;1968046;94;25921;-79
2022/03/24 18:40:41;;;;;;;10.82;8.98;;;;;;;17.96;25.94;101051.16;1936606;100;25849;-79
2022/03/24 18:44:17;;;;;;;12.93;9.45;;;;;;;17.92;26.15;101051.99;1981368;98;25942;-79
2022/03/24 18:48:12;;;;;;;20.65;9.30;;;;;;;17.87;26.25;101055.94;2066411;93;26542;-79
2022/03/24 18:51:47;;;;;;;17.60;10.32;;;;;;;17.80;26.31;101058.55;2091186;93;25396;-80
2022/03/24 18:55:23;;;;;;;23.70;11.03;;;;;;;17.72;26.41;101059.81;2073745;94;25836;-79
2022/03/24 18:58:59;;;;;;;14.58;10.30;;;;;;;17.64;26.51;101062.82;2059013;93;25968;-79
2022/03/24 19:06:03;;;;;;;21.60;10.23;;;;;;;17.49;26.61;101065.38;2078837;93;25685;-78
2022/03/24 19:09:21;;;;;;;18.40;9.98;;;;;;;17.41;26.75;101063.99;2105310;90;25789;-78
2022/03/24 19:13:01;;;;;;;18.75;9.78;;;;;;;17.34;26.88;101063.07;2104690;90;25812;-80
2022/03/24 19:16:41;;;;;;;14.78;10.30;;;;;;;17.28;26.96;101066.09;2146248;90;25896;-81
2022/03/24 19:20:12;;;;;;;14.43;10.25;;;;;;;17.22;27.02;101061.25;2118618;92;25956;-79
2022/03/24 19:23:47;;;;;;;17.40;8.90;;;;;;;17.31;27.86;101067.00;2101432;91;25680;-79
2022/03/24 19:27:09;;;;;;;12.85;8.75;;;;;;;17.57;28.88;101068.50;2104689;91;25911;-79
2022/03/24 19:30:30;;;;;;;16.67;8.55;;;;;;;17.79;29.68;101074.81;2099130;91;26503;-78
2022/03/24 19:33:54;;;;;;;12.93;7.37;;;;;;;17.97;30.43;101070.05;2105033;92;26014;-79
2022/03/24 19:37:44;;;;;;;8.13;6.75;;;;;;;18.11;30.86;101074.06;2163497;89;25689;-80
2022/03/24 19:41:15;;;;;;;12.23;8.05;;;;;;;18.24;31.16;101081.16;2207139;87;25666;-78
2022/03/24 19:44:56;;;;;;;15.00;8.75;;;;;;;18.33;31.30;101077.67;2141031;91;25743;-80
2022/03/24 19:48:31;;;;;;;11.35;8.20;;;;;;;18.36;31.26;101079.88;2170411;88;25927;-80
2022/03/24 19:51:59;;;;;;;14.47;9.15;;;;;;;18.36;31.16;101071.09;2169204;87;25783;-79
2022/03/24 19:55:34;;;;;;;15.60;9.05;;;;;;;18.37;31.09;101076.80;1977307;97;25884;-77
2022/03/24 20:02:39;;;;;;;11.65;8.85;;;;;;;18.34;31.02;101080.30;1955000;98;25799;-78
2022/03/24 20:06:31;;;;;;;11.53;9.03;;;;;;;18.33;31.01;101076.35;1931787;99;25504;-79
2022/03/24 20:09:54;;;;;;;13.25;8.73;;;;;;;18.32;31.12;101075.89;1884001;102;26040;-79
2022/03/24 20:13:18;;;;;;;12.30;8.90;;;;;;;18.32;31.20;101075.89;1892031;102;25925;-82
2022/03/24 20:16:44;;;;;;;15.72;10.28;;;;;;;18.29;31.30;101067.55;1886952;102;25828;-78
2022/03/24 20:20:27;;;;;;;16.00;8.50;;;;;;;18.33;31.57;101068.44;1886348;102;25828;-80
2022/03/24 20:23:54;;;;;;;12.30;8.73;;;;;;;18.41;31.87;101069.33;1925632;100;25807;-75
2022/03/24 20:27:18;;;;;;;12.82;9.48;;;;;;;18.48;32.15;101075.50;1912628;101;25953;-76
2022/03/24 20:30:44;;;;;;;17.75;10.63;;;;;;;18.47;32.19;101077.70;1918994;100;25940;-78
2022/03/24 20:34:07;;;;;;;14.47;10.60;;;;;;;18.41;32.05;101075.92;1915437;99;25918;-76
2022/03/24 20:37:28;;;;;;;20.20;11.12;;;;;;;18.36;31.88;101075.05;1918004;101;26457;-76
2022/03/24 20:41:31;;;;;;;;;;;;;;;;;;;;;